Keslers Cross Lanes, WV (26675)

6:42 PM EDT on April 24, 2017 (GMT -0400)
Summersville | | Change Station

Elev 1932 ft 38.30 °N, 80.84 °W | Updated 32 seconds ago

Rain
Rain
58.8 °F
Feels Like 58.8 °F
N
0.0
Wind Variable Wind from West

Today
High -- | Low -- °F
--% Chance of Precip.
Yesterday
High -- | Low -- °F
Precip. -- in
Pressure 29.88 in
Visibility 2.5 miles
Clouds Overcast 900 ft
Dew Point 54 °F
Humidity 84%
Rainfall 0.17 in
Snow Depth Not available.
6:35 AM 8:08 PM
Waning Crescent, 4% visible
SPECI KBKW 242234Z AUTO 08006KT 2 1/2SM BR OVC009 11/09 A2988 RMK AO2 CIG 007V013 T01110094 TSNO
Pressure 29.88 in
Visibility 2.5 miles
Clouds Overcast 900 ft
Dew Point 54 °F
Humidity 84%
Rainfall 0.17 in
Snow Depth Not available.
6:35 AM 8:08 PM
Waning Crescent, 4% visible
SPECI KBKW 242234Z AUTO 08006KT 2 1/2SM BR OVC009 11/09 A2988 RMK AO2 CIG 007V013 T01110094 TSNO

Get Severe Weather Alerts

Thanks for signing up!

Be on the lookout for a verification email in your inbox.

You'll start receiving the daily forecast at 8 AM.

×

10-Day Weather Forecast

Almanac

Astronomy

Apr. 24, 2017 Rise Set
Actual Time
Civil Twilight
Nautical Twilight
Astronomical Twilight
Moon
Length of Visible Light
Length of Day
Tomorrow will be .
, % of the Moon is Illuminated

Today's Extremes

State Highs State Lows

Community

WunderPhotos

WunderBlog® & News

Nearby

Air Quality

  Air Quality AQ Index Pollutant
Not available.

Snow Depth

Station Depth Elevation

Earthquake Activity

City Distance Mag. Time & Date
Minimum magnitude displayed is 2.5.

Coastal Water Temperatures

Place Temperature

Stations

Nearby Weather Stations

Station Location Temp. Windchill Dew Point Humidity Wind Precip. Elev Updated Type
                   

Watches & Warnings

There are currently no watches in effect.